createdAt,value
2023-05-12T00:00:30.220Z,14.43
2023-05-12T00:02:58.289Z,15.13
2023-05-12T00:05:26.452Z,14.98
2023-05-12T00:07:54.832Z,14.73
2023-05-12T00:10:23.388Z,14.10
2023-05-12T00:12:51.611Z,14.65
2023-05-12T00:15:20.031Z,14.73
2023-05-12T00:17:48.129Z,13.88
2023-05-12T00:20:16.936Z,13.93
2023-05-12T00:22:45.457Z,13.43
2023-05-12T00:25:13.304Z,11.77
2023-05-12T00:27:41.663Z,11.07
2023-05-12T00:30:10.746Z,13.38
2023-05-12T00:32:39.123Z,13.50
2023-05-12T00:35:07.674Z,12.50
2023-05-12T00:37:36.074Z,11.25
2023-05-12T00:40:04.972Z,12.07
2023-05-12T00:42:35.740Z,11.00
2023-05-12T00:45:05.016Z,11.77
2023-05-12T00:47:33.494Z,12.77
2023-05-12T00:50:02.348Z,12.98
2023-05-12T00:52:31.628Z,12.25
2023-05-12T00:55:02.291Z,11.63
2023-05-12T00:57:30.880Z,13.43
2023-05-12T00:59:58.899Z,12.65
2023-05-12T01:02:27.524Z,13.57
2023-05-12T01:04:56.027Z,11.63
2023-05-12T01:07:26.432Z,13.48
2023-05-12T01:09:58.823Z,11.70
2023-05-12T01:12:28.641Z,10.50
2023-05-12T01:14:57.952Z,9.45
2023-05-12T01:17:35.064Z,11.45
2023-05-12T01:20:07.520Z,11.20
2023-05-12T01:22:37.627Z,12.13
2023-05-12T01:25:11.747Z,11.07
2023-05-12T01:27:41.518Z,11.20
2023-05-12T01:30:16.798Z,12.32
2023-05-12T01:32:45.309Z,11.60
2023-05-12T01:35:14.806Z,12.35
2023-05-12T01:37:48.545Z,13.60
2023-05-12T01:40:17.461Z,11.48
2023-05-12T01:42:46.517Z,12.88
2023-05-12T01:45:15.413Z,13.20
2023-05-12T01:47:43.849Z,14.23
2023-05-12T01:50:12.004Z,12.38
2023-05-12T01:52:41.339Z,13.70
2023-05-12T01:55:13.805Z,14.57
2023-05-12T01:57:48.001Z,12.80
2023-05-12T02:00:17.060Z,11.80
2023-05-12T02:05:18.708Z,11.05
2023-05-12T02:07:49.688Z,13.27
2023-05-12T02:10:19.081Z,13.20
2023-05-12T02:12:47.650Z,14.30
2023-05-12T02:15:17.234Z,14.73
2023-05-12T02:17:47.988Z,14.98
2023-05-12T02:22:46.337Z,13.07
2023-05-12T02:25:14.687Z,14.98
2023-05-12T02:27:44.938Z,15.15
2023-05-12T02:30:13.061Z,14.75
2023-05-12T02:32:41.568Z,14.25
2023-05-12T02:35:10.588Z,13.98
2023-05-12T02:37:40.266Z,13.60
2023-05-12T02:40:09.806Z,13.32
2023-05-12T02:42:38.753Z,14.18
2023-05-12T02:45:08.216Z,13.75
2023-05-12T02:47:36.342Z,14.38
2023-05-12T02:50:05.525Z,12.40
2023-05-12T02:52:34.185Z,14.13
2023-05-12T02:55:03.462Z,13.20
2023-05-12T02:57:34.444Z,14.15
2023-05-12T03:00:06.039Z,15.00
2023-05-12T03:02:38.922Z,14.02
2023-05-12T03:05:09.390Z,14.60
2023-05-12T03:07:37.881Z,14.95
2023-05-12T03:10:07.028Z,16.48
2023-05-12T03:12:34.944Z,15.15
2023-05-12T03:15:04.574Z,16.90
2023-05-12T03:17:32.723Z,16.00
2023-05-12T03:20:01.110Z,15.95
2023-05-12T03:22:29.310Z,15.52
2023-05-12T03:24:58.837Z,15.95
2023-05-12T03:27:27.265Z,17.20
2023-05-12T03:29:55.404Z,15.90
2023-05-12T03:32:23.585Z,16.08
2023-05-12T03:34:51.912Z,15.77
2023-05-12T03:37:20.181Z,14.63
2023-05-12T03:39:48.208Z,15.35
2023-05-12T03:42:16.746Z,16.85
2023-05-12T03:44:45.537Z,14.57
2023-05-12T03:47:13.849Z,15.05
2023-05-12T03:49:41.925Z,16.17
2023-05-12T03:52:10.566Z,16.23
2023-05-12T03:54:39.213Z,15.10
2023-05-12T03:57:07.442Z,15.30
2023-05-12T03:59:35.403Z,14.80
2023-05-12T04:02:04.134Z,15.05
2023-05-12T04:04:32.633Z,16.52
2023-05-12T04:07:00.975Z,15.15
2023-05-12T04:09:33.031Z,14.52
2023-05-12T04:12:01.462Z,15.23
2023-05-12T04:14:41.809Z,15.68
2023-05-12T04:17:11.383Z,14.18
2023-05-12T04:19:39.293Z,16.35
2023-05-12T04:22:08.077Z,14.70
2023-05-12T04:24:38.640Z,15.35
2023-05-12T04:29:36.312Z,14.20
2023-05-12T04:32:05.136Z,14.48
2023-05-12T04:34:33.633Z,15.30
2023-05-12T04:37:02.442Z,15.30
2023-05-12T04:39:31.222Z,14.60
2023-05-12T04:42:02.286Z,13.68
2023-05-12T04:44:33.023Z,15.95
2023-05-12T04:47:01.453Z,12.98
2023-05-12T04:49:31.329Z,13.73
2023-05-12T04:51:59.269Z,13.35
2023-05-12T04:54:27.695Z,13.75
2023-05-12T04:56:57.654Z,13.70
2023-05-12T04:59:25.817Z,14.70
2023-05-12T05:01:55.634Z,14.52
2023-05-12T05:04:24.097Z,14.05
2023-05-12T05:06:52.444Z,15.73
2023-05-12T05:09:20.987Z,16.55
2023-05-12T05:11:49.118Z,15.43
2023-05-12T05:14:17.669Z,14.90
2023-05-12T05:16:46.298Z,17.50
2023-05-12T05:19:23.426Z,15.18
2023-05-12T05:22:03.317Z,15.30
2023-05-12T05:24:31.853Z,15.93
2023-05-12T05:27:00.625Z,15.35
2023-05-12T05:29:29.104Z,16.33
2023-05-12T05:31:58.336Z,15.75
2023-05-12T05:34:26.586Z,14.60
2023-05-12T05:36:55.587Z,15.65
2023-05-12T05:39:24.233Z,14.48
2023-05-12T05:41:52.460Z,14.80
2023-05-12T05:44:20.865Z,16.73
2023-05-12T05:46:49.380Z,15.45
2023-05-12T05:49:17.345Z,15.85
2023-05-12T05:51:45.270Z,15.98
2023-05-12T05:54:13.424Z,16.35
2023-05-12T05:56:41.976Z,16.50
2023-05-12T05:59:11.012Z,15.88
2023-05-12T06:01:39.406Z,15.30
2023-05-12T06:04:07.400Z,15.38
2023-05-12T06:06:37.017Z,15.48
2023-05-12T06:09:05.508Z,15.38
2023-05-12T06:11:34.341Z,16.92
2023-05-12T06:14:02.701Z,14.85
2023-05-12T06:16:30.620Z,16.15
2023-05-12T06:18:58.819Z,16.70
2023-05-12T06:21:27.275Z,16.27
2023-05-12T06:23:56.790Z,16.42
2023-05-12T06:26:25.427Z,14.80
2023-05-12T06:28:53.652Z,13.93
2023-05-12T06:31:22.188Z,14.40
2023-05-12T06:33:50.323Z,14.32
2023-05-12T06:36:18.797Z,14.27
2023-05-12T06:38:46.979Z,14.55
2023-05-12T06:41:15.134Z,13.68
2023-05-12T06:43:44.358Z,13.43
2023-05-12T06:46:15.077Z,14.90
2023-05-12T06:48:44.721Z,15.13
2023-05-12T06:51:13.814Z,14.32
2023-05-12T06:53:42.905Z,14.40
2023-05-12T06:56:11.391Z,14.40
2023-05-12T06:58:39.389Z,13.73
2023-05-12T07:01:08.018Z,12.52
2023-05-12T07:03:35.991Z,12.25
2023-05-12T07:06:04.636Z,11.95
2023-05-12T07:08:32.960Z,13.10
2023-05-12T07:11:01.640Z,11.88
2023-05-12T07:13:30.128Z,13.15
2023-05-12T07:15:57.984Z,11.52
2023-05-12T07:18:26.383Z,12.00
2023-05-12T07:20:54.582Z,11.48
2023-05-12T07:23:22.628Z,12.43
2023-05-12T07:25:50.701Z,12.00
2023-05-12T07:28:19.969Z,10.27
2023-05-12T07:30:48.585Z,11.07
2023-05-12T07:33:16.540Z,11.18
2023-05-12T07:35:44.638Z,12.10
2023-05-12T07:38:13.015Z,11.68
2023-05-12T07:40:41.239Z,11.77
2023-05-12T07:43:09.107Z,10.15
2023-05-12T07:45:37.409Z,9.27
2023-05-12T07:48:05.651Z,10.43
2023-05-12T07:50:34.359Z,10.00
2023-05-12T07:53:02.239Z,11.23
2023-05-12T07:55:30.672Z,10.65
2023-05-12T07:57:58.601Z,11.15
2023-05-12T08:00:26.772Z,11.02
2023-05-12T08:02:55.541Z,10.20
2023-05-12T08:05:23.725Z,10.20
2023-05-12T08:07:51.937Z,9.95
2023-05-12T08:10:20.491Z,10.90
2023-05-12T08:12:48.820Z,10.63
2023-05-12T08:15:17.110Z,10.55
2023-05-12T08:17:44.973Z,10.30
2023-05-12T08:20:13.913Z,9.65
2023-05-12T08:22:42.050Z,9.73
2023-05-12T08:25:12.437Z,9.75
2023-05-12T08:27:41.080Z,8.05
2023-05-12T08:30:10.294Z,9.13
2023-05-12T08:32:38.948Z,8.68
2023-05-12T08:35:07.418Z,7.82
2023-05-12T08:37:35.355Z,7.80
2023-05-12T08:40:04.106Z,7.82
2023-05-12T08:42:44.071Z,7.75
2023-05-12T08:45:12.589Z,8.18
2023-05-12T08:47:43.573Z,7.35
2023-05-12T08:50:14.396Z,8.35
2023-05-12T08:55:11.035Z,7.68
2023-05-12T08:57:42.681Z,8.23
2023-05-12T09:00:12.576Z,8.40
2023-05-12T09:02:51.989Z,8.70
2023-05-12T09:05:23.333Z,8.52
2023-05-12T09:07:55.003Z,9.77
2023-05-12T09:13:03.545Z,8.40
2023-05-12T09:15:43.393Z,7.47
2023-05-12T09:18:11.857Z,6.75
2023-05-12T09:20:39.715Z,6.97
2023-05-12T09:23:20.081Z,6.35
2023-05-12T09:26:03.840Z,6.60
2023-05-12T09:28:37.672Z,7.00
2023-05-12T09:31:24.433Z,7.03
2023-05-12T09:33:53.256Z,7.47
2023-05-12T09:36:23.862Z,7.18
2023-05-12T09:41:42.644Z,7.05
2023-05-12T09:44:16.880Z,6.97
2023-05-12T09:46:45.798Z,7.40
2023-05-12T09:49:22.549Z,7.50
2023-05-12T09:51:56.492Z,7.80
2023-05-12T09:54:26.392Z,7.05
2023-05-12T09:57:01.424Z,7.30
2023-05-12T09:59:34.150Z,7.75
2023-05-12T10:02:07.377Z,7.40
2023-05-12T10:04:58.328Z,5.95
2023-05-12T10:07:27.516Z,6.72
2023-05-12T10:10:01.307Z,6.85
2023-05-12T10:12:29.768Z,6.95
2023-05-12T10:14:59.658Z,6.57
2023-05-12T10:17:29.215Z,5.32
2023-05-12T10:19:58.062Z,5.68
2023-05-12T10:22:28.831Z,6.18
2023-05-12T10:24:57.774Z,6.47
2023-05-12T10:27:26.393Z,6.32
2023-05-12T10:29:55.301Z,5.45
2023-05-12T10:32:23.653Z,6.53
2023-05-12T10:34:53.372Z,6.93
2023-05-12T10:37:23.880Z,5.72
2023-05-12T10:39:53.064Z,4.72
2023-05-12T10:42:25.780Z,5.25
2023-05-12T10:44:56.371Z,4.30
2023-05-12T10:47:29.241Z,5.38
2023-05-12T10:50:00.961Z,5.03
2023-05-12T10:52:29.257Z,4.72
2023-05-12T10:55:03.014Z,4.90
2023-05-12T10:57:33.370Z,5.20
2023-05-12T11:00:03.507Z,4.65
2023-05-12T11:02:34.440Z,4.85
2023-05-12T11:05:12.913Z,4.78
2023-05-12T11:07:50.134Z,4.32
2023-05-12T11:10:20.207Z,4.63
2023-05-12T11:12:50.107Z,4.45
2023-05-12T11:15:18.756Z,5.18
2023-05-12T11:17:47.225Z,4.72
2023-05-12T11:20:27.612Z,5.18
2023-05-12T11:22:57.950Z,4.28
2023-05-12T11:25:35.588Z,3.72
2023-05-12T11:28:04.087Z,4.10
2023-05-12T11:30:32.430Z,4.13
2023-05-12T11:33:04.073Z,3.75
2023-05-12T11:35:32.791Z,3.55
2023-05-12T11:38:02.839Z,3.30
2023-05-12T11:40:31.147Z,2.63
2023-05-12T11:43:12.073Z,2.60
2023-05-12T11:45:40.636Z,2.83
2023-05-12T11:48:14.882Z,3.28
2023-05-12T11:50:48.521Z,3.13
2023-05-12T11:53:18.842Z,3.10
2023-05-12T11:55:56.688Z,3.00
2023-05-12T11:58:34.538Z,2.60
2023-05-12T12:01:12.056Z,2.47
2023-05-12T12:03:52.180Z,2.45
2023-05-12T12:06:22.767Z,2.80
2023-05-12T12:08:59.959Z,2.47
2023-05-12T12:11:30.471Z,2.17
2023-05-12T12:13:59.154Z,2.42
2023-05-12T12:16:31.417Z,2.05
2023-05-12T12:19:00.208Z,2.10
2023-05-12T12:21:28.497Z,2.00
2023-05-12T12:23:56.939Z,1.58
2023-05-12T12:26:25.145Z,1.83
2023-05-12T12:28:53.488Z,2.17
2023-05-12T12:31:21.731Z,2.00
2023-05-12T12:33:50.075Z,2.13
2023-05-12T12:36:18.351Z,1.88
2023-05-12T12:38:46.622Z,1.90
2023-05-12T12:41:14.972Z,2.10
2023-05-12T12:43:43.251Z,1.75
2023-05-12T12:46:11.630Z,1.92
2023-05-12T12:48:40.024Z,1.90
2023-05-12T12:51:08.414Z,1.63
2023-05-12T12:53:37.756Z,1.80
2023-05-12T12:56:06.714Z,2.00
2023-05-12T12:58:35.007Z,1.60
2023-05-12T13:01:03.471Z,1.58
2023-05-12T13:03:31.782Z,1.52
2023-05-12T13:06:00.081Z,1.60
2023-05-12T13:08:28.337Z,1.80
2023-05-12T13:10:56.666Z,1.48
2023-05-12T13:13:30.298Z,1.40
2023-05-12T13:15:58.693Z,1.60
2023-05-12T13:18:26.594Z,1.70
2023-05-12T13:20:55.261Z,1.90
2023-05-12T13:23:23.781Z,2.00
2023-05-12T13:25:52.779Z,1.58
2023-05-12T13:28:21.285Z,2.10
2023-05-12T13:30:49.741Z,1.58
2023-05-12T13:33:18.124Z,2.25
2023-05-12T13:35:46.877Z,1.80
2023-05-12T13:38:15.187Z,1.83
2023-05-12T13:40:43.585Z,1.90
2023-05-12T13:43:12.502Z,1.48
2023-05-12T13:45:41.007Z,2.17
2023-05-12T13:48:10.171Z,1.95
2023-05-12T13:50:38.632Z,2.03
2023-05-12T13:53:06.878Z,2.15
2023-05-12T13:55:40.647Z,1.85
2023-05-12T13:58:08.963Z,1.88
2023-05-12T14:00:37.274Z,1.77
2023-05-12T14:03:05.696Z,1.65
2023-05-12T14:05:34.084Z,1.65
2023-05-12T14:08:02.663Z,2.17
2023-05-12T14:10:32.505Z,1.75
2023-05-12T14:13:00.719Z,1.70
2023-05-12T14:15:44.324Z,1.70
2023-05-12T14:18:16.767Z,1.95
2023-05-12T14:20:45.239Z,2.05
2023-05-12T14:23:13.603Z,2.00
2023-05-12T14:25:42.447Z,2.10
2023-05-12T14:28:11.389Z,1.85
2023-05-12T14:30:39.857Z,1.92
2023-05-12T14:33:08.463Z,1.90
2023-05-12T14:35:37.769Z,2.50
2023-05-12T14:38:05.678Z,1.73
2023-05-12T14:40:34.035Z,1.92
2023-05-12T14:43:02.366Z,1.63
2023-05-12T14:45:31.905Z,1.73
2023-05-12T14:48:00.355Z,1.65
2023-05-12T14:50:29.628Z,1.63
2023-05-12T14:52:57.800Z,1.90
2023-05-12T14:55:26.476Z,1.90
2023-05-12T14:57:54.744Z,1.40
2023-05-12T15:00:22.850Z,1.77
2023-05-12T15:02:50.837Z,1.90
2023-05-12T15:05:19.683Z,1.60
2023-05-12T15:07:48.197Z,1.80
2023-05-12T15:10:16.766Z,1.90
2023-05-12T15:12:44.676Z,1.95
2023-05-12T15:15:13.099Z,1.80
2023-05-12T15:17:41.342Z,1.63
2023-05-12T15:20:10.074Z,1.40
2023-05-12T15:22:37.924Z,2.00
2023-05-12T15:25:07.141Z,1.50
2023-05-12T15:27:35.046Z,1.83
2023-05-12T15:30:03.681Z,1.67
2023-05-12T15:32:32.101Z,1.87
2023-05-12T15:35:00.421Z,1.77
2023-05-12T15:37:28.687Z,1.40
2023-05-12T15:39:56.900Z,1.73
2023-05-12T15:42:30.080Z,1.75
2023-05-12T15:45:01.298Z,1.58
2023-05-12T15:47:29.763Z,1.55
2023-05-12T15:51:56.374Z,1.73
2023-05-12T15:54:26.436Z,1.77
2023-05-12T15:56:54.646Z,1.70
2023-05-12T15:59:23.008Z,1.70
2023-05-12T16:01:51.316Z,1.80
2023-05-12T16:04:19.796Z,2.17
2023-05-12T16:06:48.078Z,1.90
2023-05-12T16:09:16.436Z,1.70
2023-05-12T16:11:44.745Z,1.75
2023-05-12T16:14:14.175Z,1.85
2023-05-12T16:16:48.011Z,2.22
2023-05-12T16:19:16.961Z,2.08
2023-05-12T16:21:45.653Z,1.58
2023-05-12T16:24:13.928Z,1.90
2023-05-12T16:26:42.376Z,1.83
2023-05-12T16:29:10.618Z,2.00
2023-05-12T16:31:38.843Z,2.00
2023-05-12T16:34:07.690Z,1.85
2023-05-12T16:36:36.204Z,2.10
2023-05-12T16:39:04.916Z,1.75
2023-05-12T16:41:33.321Z,2.00
2023-05-12T16:44:02.154Z,1.83
2023-05-12T16:46:32.849Z,2.28
2023-05-12T16:49:01.433Z,1.70
2023-05-12T16:51:30.867Z,2.20
2023-05-12T16:53:59.595Z,2.03
2023-05-12T16:56:28.035Z,2.15
2023-05-12T16:58:56.559Z,1.95
2023-05-12T17:01:25.001Z,1.83
2023-05-12T17:03:53.584Z,1.95
2023-05-12T17:06:21.627Z,1.67
2023-05-12T17:08:50.091Z,2.15
2023-05-12T17:11:18.448Z,1.90
2023-05-12T17:13:46.708Z,2.13
2023-05-12T17:16:15.001Z,2.53
2023-05-12T17:21:14.687Z,2.17
2023-05-12T17:23:42.704Z,2.72
2023-05-12T17:26:11.253Z,2.13
2023-05-12T17:28:39.506Z,2.22
2023-05-12T17:31:08.407Z,2.28
2023-05-12T17:33:36.930Z,4.30
2023-05-12T17:36:12.345Z,3.70
2023-05-12T17:38:41.712Z,3.30
2023-05-12T17:41:12.781Z,2.85
2023-05-12T17:43:41.401Z,2.33
2023-05-12T17:46:09.783Z,2.60
2023-05-12T17:48:38.563Z,3.05
2023-05-12T17:51:07.197Z,3.13
2023-05-12T17:53:35.696Z,3.38
2023-05-12T17:56:04.176Z,2.58
2023-05-12T17:58:32.578Z,3.08
2023-05-12T18:01:00.840Z,2.50
2023-05-12T18:03:29.162Z,2.90
2023-05-12T18:05:57.572Z,2.65
2023-05-12T18:08:27.055Z,2.53
2023-05-12T18:10:55.342Z,2.80
2023-05-12T18:13:23.720Z,2.60
2023-05-12T18:15:52.041Z,1.98
2023-05-12T18:18:20.281Z,2.28
2023-05-12T18:20:48.525Z,2.17
2023-05-12T18:23:16.518Z,2.20
2023-05-12T18:25:44.896Z,2.38
2023-05-12T18:28:13.117Z,2.22
2023-05-12T18:30:41.468Z,2.00
2023-05-12T18:33:09.946Z,2.95
2023-05-12T18:35:38.285Z,2.50
2023-05-12T18:38:07.060Z,2.75
2023-05-12T18:40:35.682Z,2.45
2023-05-12T18:43:04.148Z,2.75
2023-05-12T18:45:32.360Z,2.20
2023-05-12T18:48:00.618Z,2.55
2023-05-12T18:50:28.989Z,3.95
2023-05-12T18:52:57.320Z,3.78
2023-05-12T18:55:25.557Z,3.08
2023-05-12T18:57:53.768Z,2.38
2023-05-12T19:00:25.937Z,2.40
2023-05-12T19:02:53.988Z,2.88
2023-05-12T19:05:22.869Z,2.47
2023-05-12T19:07:51.120Z,2.70
2023-05-12T19:10:20.635Z,2.50
2023-05-12T19:12:50.834Z,2.78
2023-05-12T19:15:19.531Z,2.92
2023-05-12T19:17:48.587Z,2.92
2023-05-12T19:20:17.132Z,3.20
2023-05-12T19:22:46.347Z,2.83
2023-05-12T19:25:17.693Z,2.30
2023-05-12T19:27:46.400Z,2.65
2023-05-12T19:30:15.393Z,2.80
2023-05-12T19:32:45.824Z,2.80
2023-05-12T19:35:17.471Z,2.92
2023-05-12T19:37:45.807Z,2.70
2023-05-12T19:40:14.120Z,3.17
2023-05-12T19:42:42.452Z,2.75
2023-05-12T19:45:11.440Z,2.50
2023-05-12T19:47:39.798Z,2.60
2023-05-12T19:50:09.163Z,2.90
2023-05-12T19:52:37.989Z,2.80
2023-05-12T19:55:08.475Z,2.42
2023-05-12T19:57:37.485Z,2.80
2023-05-12T20:00:06.729Z,2.65
2023-05-12T20:02:40.693Z,3.08
2023-05-12T20:05:09.661Z,2.63
2023-05-12T20:07:37.666Z,3.17
2023-05-12T20:10:06.587Z,3.97
2023-05-12T20:12:34.880Z,3.75
2023-05-12T20:15:03.359Z,4.00
2023-05-12T20:17:31.368Z,3.50
2023-05-12T20:20:01.345Z,3.22
2023-05-12T20:22:29.487Z,3.30
2023-05-12T20:25:04.139Z,3.47
2023-05-12T20:27:32.914Z,3.58
2023-05-12T20:30:01.315Z,3.25
2023-05-12T20:32:29.720Z,3.03
2023-05-12T20:34:58.330Z,3.28
2023-05-12T20:37:27.284Z,3.63
2023-05-12T20:39:55.788Z,3.72
2023-05-12T20:42:24.244Z,3.80
2023-05-12T20:44:52.715Z,3.33
2023-05-12T20:47:20.979Z,3.47
2023-05-12T20:49:49.621Z,3.63
2023-05-12T20:52:18.118Z,3.47
2023-05-12T20:54:46.558Z,3.65
2023-05-12T20:57:14.540Z,3.72
2023-05-12T20:59:43.122Z,3.10
2023-05-12T21:02:11.622Z,3.95
2023-05-12T21:04:40.979Z,3.60
2023-05-12T21:07:09.617Z,3.00
2023-05-12T21:09:38.113Z,3.95
2023-05-12T21:12:07.107Z,3.80
2023-05-12T21:14:43.436Z,3.38
2023-05-12T21:17:13.527Z,3.40
2023-05-12T21:19:43.046Z,3.20
2023-05-12T21:22:12.775Z,3.47
2023-05-12T21:24:41.961Z,2.83
2023-05-12T21:27:09.892Z,2.60
2023-05-12T21:29:38.987Z,3.08
2023-05-12T21:32:07.903Z,2.47
2023-05-12T21:34:36.240Z,3.30
2023-05-12T21:37:04.614Z,3.20
2023-05-12T21:39:32.965Z,3.20
2023-05-12T21:42:00.822Z,4.07
2023-05-12T21:44:30.707Z,3.40
2023-05-12T21:46:59.053Z,3.47
2023-05-12T21:49:27.296Z,3.72
2023-05-12T21:51:56.137Z,2.88
2023-05-12T21:54:24.500Z,3.05
2023-05-12T21:56:53.071Z,3.35
2023-05-12T21:59:21.071Z,2.95
2023-05-12T22:01:49.038Z,3.08
2023-05-12T22:04:17.497Z,3.53
2023-05-12T22:06:45.307Z,3.47
2023-05-12T22:09:13.698Z,3.67
2023-05-12T22:11:42.350Z,3.25
2023-05-12T22:14:10.178Z,3.63
2023-05-12T22:16:41.737Z,2.90
2023-05-12T22:19:10.675Z,3.92
2023-05-12T22:21:39.335Z,4.13
2023-05-12T22:24:08.152Z,3.38
2023-05-12T22:26:36.580Z,4.03
2023-05-12T22:29:04.446Z,3.80
2023-05-12T22:31:33.471Z,3.30
2023-05-12T22:34:01.811Z,3.45
2023-05-12T22:36:30.190Z,3.45
2023-05-12T22:38:58.028Z,3.67
2023-05-12T22:41:26.455Z,3.80
2023-05-12T22:43:54.696Z,3.88
2023-05-12T22:46:22.542Z,3.50
2023-05-12T22:48:52.690Z,3.70
2023-05-12T22:51:21.169Z,3.57
2023-05-12T22:53:49.036Z,3.65
2023-05-12T22:56:17.061Z,3.40
2023-05-12T22:58:45.407Z,3.72
2023-05-12T23:01:13.672Z,4.10
2023-05-12T23:03:42.344Z,3.88
2023-05-12T23:06:10.736Z,3.60
2023-05-12T23:08:38.918Z,3.17
2023-05-12T23:11:07.176Z,4.10
2023-05-12T23:13:35.549Z,3.63
2023-05-12T23:16:03.777Z,4.00
2023-05-12T23:18:31.990Z,4.88
2023-05-12T23:21:00.038Z,4.32
2023-05-12T23:23:28.743Z,3.60
2023-05-12T23:25:57.463Z,3.50
2023-05-12T23:28:26.130Z,3.47
2023-05-12T23:30:54.356Z,4.20
2023-05-12T23:33:22.755Z,3.90
2023-05-12T23:35:51.079Z,4.55
2023-05-12T23:38:19.563Z,3.88
2023-05-12T23:40:47.953Z,3.95
2023-05-12T23:43:16.130Z,3.90
2023-05-12T23:45:44.220Z,3.90
2023-05-12T23:48:12.583Z,3.90
2023-05-12T23:50:40.992Z,3.50
2023-05-12T23:53:09.403Z,3.40
2023-05-12T23:55:38.070Z,3.28
2023-05-12T23:58:06.838Z,4.40
